sensor_id;sensor_type;location;lat;lon;timestamp;pressure;altitude;pressure_sealevel;temperature;humidity
38812;BME280;24553;51.640;-0.752;2023-01-26T00:01:37;102204.41;;;1.92;100.00
38812;BME280;24553;51.640;-0.752;2023-01-26T00:04:02;102205.69;;;1.85;100.00
38812;BME280;24553;51.640;-0.752;2023-01-26T00:06:27;102197.28;;;1.65;100.00
38812;BME280;24553;51.640;-0.752;2023-01-26T00:08:54;102192.66;;;1.55;100.00
38812;BME280;24553;51.640;-0.752;2023-01-26T00:11:23;102190.44;;;1.48;100.00
38812;BME280;24553;51.640;-0.752;2023-01-26T00:13:51;102192.72;;;1.39;100.00
38812;BME280;24553;51.640;-0.752;2023-01-26T00:16:17;102187.41;;;1.40;100.00
38812;BME280;24553;51.640;-0.752;2023-01-26T00:18:42;102186.22;;;1.46;100.00
38812;BME280;24553;51.640;-0.752;2023-01-26T00:21:11;102187.31;;;1.42;100.00
38812;BME280;24553;51.640;-0.752;2023-01-26T00:23:36;102192.84;;;1.37;100.00
38812;BME280;24553;51.640;-0.752;2023-01-26T00:26:04;102195.13;;;1.27;100.00
38812;BME280;24553;51.640;-0.752;2023-01-26T00:28:30;102184.31;;;1.34;100.00
38812;BME280;24553;51.640;-0.752;2023-01-26T00:31:03;102188.63;;;1.35;100.00
38812;BME280;24553;51.640;-0.752;2023-01-26T00:33:29;102195.31;;;1.24;100.00
38812;BME280;24553;51.640;-0.752;2023-01-26T00:35:54;102192.38;;;1.15;100.00
38812;BME280;24553;51.640;-0.752;2023-01-26T00:38:20;102196.00;;;1.12;100.00
38812;BME280;24553;51.640;-0.752;2023-01-26T00:40:45;102194.59;;;1.06;100.00
38812;BME280;24553;51.640;-0.752;2023-01-26T00:43:10;102200.88;;;0.88;100.00
38812;BME280;24553;51.640;-0.752;2023-01-26T00:45:36;102196.06;;;0.80;100.00
38812;BME280;24553;51.640;-0.752;2023-01-26T00:48:01;102193.97;;;0.71;100.00
38812;BME280;24553;51.640;-0.752;2023-01-26T00:50:26;102199.66;;;0.62;100.00
38812;BME280;24553;51.640;-0.752;2023-01-26T00:52:52;102191.28;;;0.73;100.00
38812;BME280;24553;51.640;-0.752;2023-01-26T00:55:18;102194.63;;;0.75;100.00
38812;BME280;24553;51.640;-0.752;2023-01-26T00:57:43;102199.34;;;0.68;100.00
38812;BME280;24553;51.640;-0.752;2023-01-26T01:00:09;102192.28;;;0.70;100.00
38812;BME280;24553;51.640;-0.752;2023-01-26T01:02:38;102194.72;;;0.57;100.00
38812;BME280;24553;51.640;-0.752;2023-01-26T01:05:03;102193.72;;;0.44;100.00
38812;BME280;24553;51.640;-0.752;2023-01-26T01:07:29;102184.88;;;0.47;100.00
38812;BME280;24553;51.640;-0.752;2023-01-26T01:09:54;102186.78;;;0.43;100.00
38812;BME280;24553;51.640;-0.752;2023-01-26T01:12:19;102201.97;;;0.68;100.00
38812;BME280;24553;51.640;-0.752;2023-01-26T01:14:45;102188.16;;;0.66;100.00
38812;BME280;24553;51.640;-0.752;2023-01-26T01:17:10;102191.00;;;0.77;100.00
38812;BME280;24553;51.640;-0.752;2023-01-26T01:19:35;102195.72;;;0.71;100.00
38812;BME280;24553;51.640;-0.752;2023-01-26T01:22:02;102191.41;;;0.54;100.00
38812;BME280;24553;51.640;-0.752;2023-01-26T01:24:27;102189.91;;;0.65;100.00
38812;BME280;24553;51.640;-0.752;2023-01-26T01:26:52;102192.44;;;0.83;100.00
38812;BME280;24553;51.640;-0.752;2023-01-26T01:29:18;102187.88;;;0.86;100.00
38812;BME280;24553;51.640;-0.752;2023-01-26T01:31:43;102191.00;;;0.93;100.00
38812;BME280;24553;51.640;-0.752;2023-01-26T01:34:08;102190.41;;;0.88;100.00
38812;BME280;24553;51.640;-0.752;2023-01-26T01:36:34;102196.22;;;0.77;100.00
38812;BME280;24553;51.640;-0.752;2023-01-26T01:38:59;102199.41;;;0.67;100.00
38812;BME280;24553;51.640;-0.752;2023-01-26T01:41:26;102188.22;;;0.80;100.00
38812;BME280;24553;51.640;-0.752;2023-01-26T01:44:11;102200.00;;;0.87;100.00
38812;BME280;24553;51.640;-0.752;2023-01-26T01:46:36;102206.81;;;0.90;100.00
38812;BME280;24553;51.640;-0.752;2023-01-26T01:49:06;102207.41;;;0.95;100.00
38812;BME280;24553;51.640;-0.752;2023-01-26T01:51:41;102204.94;;;1.08;100.00
38812;BME280;24553;51.640;-0.752;2023-01-26T01:54:11;102202.63;;;1.03;100.00
38812;BME280;24553;51.640;-0.752;2023-01-26T01:56:39;102198.47;;;0.99;100.00
38812;BME280;24553;51.640;-0.752;2023-01-26T01:59:07;102200.66;;;1.07;100.00
38812;BME280;24553;51.640;-0.752;2023-01-26T02:01:34;102203.00;;;1.12;100.00
38812;BME280;24553;51.640;-0.752;2023-01-26T02:04:02;102205.69;;;1.10;100.00
38812;BME280;24553;51.640;-0.752;2023-01-26T02:06:41;102205.22;;;1.03;100.00
38812;BME280;24553;51.640;-0.752;2023-01-26T02:09:10;102210.50;;;1.18;100.00
38812;BME280;24553;51.640;-0.752;2023-01-26T02:11:57;102209.28;;;1.23;100.00
38812;BME280;24553;51.640;-0.752;2023-01-26T02:14:23;102219.13;;;1.34;100.00
38812;BME280;24553;51.640;-0.752;2023-01-26T02:16:49;102210.25;;;1.37;100.00
38812;BME280;24553;51.640;-0.752;2023-01-26T02:22:16;102202.03;;;1.28;100.00
38812;BME280;24553;51.640;-0.752;2023-01-26T02:24:43;102200.19;;;1.30;100.00
38812;BME280;24553;51.640;-0.752;2023-01-26T02:27:09;102201.16;;;1.14;100.00
38812;BME280;24553;51.640;-0.752;2023-01-26T02:29:35;102189.25;;;1.08;100.00
38812;BME280;24553;51.640;-0.752;2023-01-26T02:32:00;102197.59;;;1.15;100.00
38812;BME280;24553;51.640;-0.752;2023-01-26T02:34:25;102192.19;;;1.18;100.00
38812;BME280;24553;51.640;-0.752;2023-01-26T02:36:59;102200.53;;;1.24;100.00
38812;BME280;24553;51.640;-0.752;2023-01-26T02:39:43;102204.13;;;1.38;100.00
38812;BME280;24553;51.640;-0.752;2023-01-26T02:42:12;102204.38;;;1.33;100.00
38812;BME280;24553;51.640;-0.752;2023-01-26T02:44:57;102210.97;;;1.55;100.00
38812;BME280;24553;51.640;-0.752;2023-01-26T02:47:22;102216.31;;;1.67;100.00
38812;BME280;24553;51.640;-0.752;2023-01-26T02:49:47;102212.44;;;1.44;100.00
38812;BME280;24553;51.640;-0.752;2023-01-26T02:52:18;102212.81;;;1.38;100.00
38812;BME280;24553;51.640;-0.752;2023-01-26T02:54:44;102213.81;;;1.36;100.00
38812;BME280;24553;51.640;-0.752;2023-01-26T02:57:28;102217.00;;;1.41;100.00
38812;BME280;24553;51.640;-0.752;2023-01-26T02:59:54;102223.31;;;1.22;100.00
38812;BME280;24553;51.640;-0.752;2023-01-26T03:02:19;102223.66;;;1.16;100.00
38812;BME280;24553;51.640;-0.752;2023-01-26T03:04:45;102220.19;;;1.16;100.00
38812;BME280;24553;51.640;-0.752;2023-01-26T03:07:10;102229.63;;;1.18;100.00
38812;BME280;24553;51.640;-0.752;2023-01-26T03:09:35;102219.34;;;1.15;100.00
38812;BME280;24553;51.640;-0.752;2023-01-26T03:12:01;102221.25;;;1.27;100.00
38812;BME280;24553;51.640;-0.752;2023-01-26T03:14:27;102225.69;;;1.41;100.00
38812;BME280;24553;51.640;-0.752;2023-01-26T03:16:52;102221.91;;;1.61;100.00
38812;BME280;24553;51.640;-0.752;2023-01-26T03:19:19;102222.91;;;1.89;100.00
38812;BME280;24553;51.640;-0.752;2023-01-26T03:22:04;102220.09;;;2.06;100.00
38812;BME280;24553;51.640;-0.752;2023-01-26T03:24:48;102221.06;;;2.20;100.00
38812;BME280;24553;51.640;-0.752;2023-01-26T03:27:45;102221.03;;;2.34;100.00
38812;BME280;24553;51.640;-0.752;2023-01-26T03:30:12;102217.28;;;2.38;100.00
38812;BME280;24553;51.640;-0.752;2023-01-26T03:32:38;102207.94;;;2.34;100.00
38812;BME280;24553;51.640;-0.752;2023-01-26T03:35:04;102210.75;;;2.31;100.00
38812;BME280;24553;51.640;-0.752;2023-01-26T03:37:30;102220.03;;;2.22;100.00
38812;BME280;24553;51.640;-0.752;2023-01-26T03:40:04;102215.53;;;2.10;100.00
38812;BME280;24553;51.640;-0.752;2023-01-26T03:42:48;102215.34;;;2.13;100.00
38812;BME280;24553;51.640;-0.752;2023-01-26T03:45:32;102228.22;;;2.16;100.00
38812;BME280;24553;51.640;-0.752;2023-01-26T03:48:16;102217.84;;;2.29;100.00
38812;BME280;24553;51.640;-0.752;2023-01-26T03:51:00;102216.53;;;2.36;100.00
38812;BME280;24553;51.640;-0.752;2023-01-26T03:53:44;102225.72;;;2.29;100.00
38812;BME280;24553;51.640;-0.752;2023-01-26T03:56:28;102224.13;;;2.26;100.00
38812;BME280;24553;51.640;-0.752;2023-01-26T03:58:58;102231.13;;;2.26;100.00
38812;BME280;24553;51.640;-0.752;2023-01-26T04:01:38;102240.50;;;2.30;100.00
38812;BME280;24553;51.640;-0.752;2023-01-26T04:04:04;102237.97;;;2.28;100.00
38812;BME280;24553;51.640;-0.752;2023-01-26T04:06:49;102233.13;;;2.22;100.00
38812;BME280;24553;51.640;-0.752;2023-01-26T04:09:35;102240.56;;;2.28;100.00
38812;BME280;24553;51.640;-0.752;2023-01-26T04:12:06;102243.63;;;2.35;100.00
38812;BME280;24553;51.640;-0.752;2023-01-26T04:14:34;102238.25;;;2.38;100.00
38812;BME280;24553;51.640;-0.752;2023-01-26T04:17:18;102235.41;;;2.55;100.00
38812;BME280;24553;51.640;-0.752;2023-01-26T04:20:03;102231.66;;;2.59;100.00
38812;BME280;24553;51.640;-0.752;2023-01-26T04:22:47;102239.59;;;2.58;100.00
38812;BME280;24553;51.640;-0.752;2023-01-26T04:25:15;102251.56;;;2.62;100.00
38812;BME280;24553;51.640;-0.752;2023-01-26T04:27:41;102243.16;;;2.57;100.00
38812;BME280;24553;51.640;-0.752;2023-01-26T04:30:10;102248.41;;;2.57;100.00
38812;BME280;24553;51.640;-0.752;2023-01-26T04:32:36;102253.16;;;2.65;100.00
38812;BME280;24553;51.640;-0.752;2023-01-26T04:35:03;102248.94;;;2.76;100.00
38812;BME280;24553;51.640;-0.752;2023-01-26T04:37:28;102249.78;;;2.77;100.00
38812;BME280;24553;51.640;-0.752;2023-01-26T04:39:54;102262.31;;;2.72;100.00
38812;BME280;24553;51.640;-0.752;2023-01-26T04:42:19;102245.56;;;2.74;100.00
38812;BME280;24553;51.640;-0.752;2023-01-26T04:44:45;102249.03;;;2.75;100.00
38812;BME280;24553;51.640;-0.752;2023-01-26T04:47:10;102248.84;;;2.78;100.00
38812;BME280;24553;51.640;-0.752;2023-01-26T04:49:35;102248.16;;;2.89;100.00
38812;BME280;24553;51.640;-0.752;2023-01-26T04:52:01;102248.41;;;2.98;100.00
38812;BME280;24553;51.640;-0.752;2023-01-26T04:54:26;102242.88;;;3.03;100.00
38812;BME280;24553;51.640;-0.752;2023-01-26T04:56:51;102240.50;;;3.13;100.00
38812;BME280;24553;51.640;-0.752;2023-01-26T04:59:17;102240.44;;;3.27;100.00
38812;BME280;24553;51.640;-0.752;2023-01-26T05:01:42;102247.50;;;3.39;100.00
38812;BME280;24553;51.640;-0.752;2023-01-26T05:04:10;102242.28;;;3.52;100.00
38812;BME280;24553;51.640;-0.752;2023-01-26T05:06:36;102246.06;;;3.61;100.00
38812;BME280;24553;51.640;-0.752;2023-01-26T05:09:03;102239.91;;;3.62;100.00
38812;BME280;24553;51.640;-0.752;2023-01-26T05:11:29;102241.25;;;3.55;100.00
38812;BME280;24553;51.640;-0.752;2023-01-26T05:13:54;102240.72;;;3.49;100.00
38812;BME280;24553;51.640;-0.752;2023-01-26T05:16:19;102232.53;;;3.54;100.00
38812;BME280;24553;51.640;-0.752;2023-01-26T05:18:45;102232.34;;;3.57;100.00
38812;BME280;24553;51.640;-0.752;2023-01-26T05:21:10;102231.59;;;3.55;100.00
38812;BME280;24553;51.640;-0.752;2023-01-26T05:23:36;102224.56;;;3.56;100.00
38812;BME280;24553;51.640;-0.752;2023-01-26T05:26:03;102226.97;;;3.46;100.00
38812;BME280;24553;51.640;-0.752;2023-01-26T05:28:28;102221.53;;;3.49;100.00
38812;BME280;24553;51.640;-0.752;2023-01-26T05:30:54;102230.53;;;3.45;100.00
38812;BME280;24553;51.640;-0.752;2023-01-26T05:33:19;102238.06;;;3.37;100.00
38812;BME280;24553;51.640;-0.752;2023-01-26T05:35:49;102230.53;;;3.45;100.00
38812;BME280;24553;51.640;-0.752;2023-01-26T05:38:14;102236.59;;;3.45;100.00
38812;BME280;24553;51.640;-0.752;2023-01-26T05:40:39;102239.44;;;3.42;100.00
38812;BME280;24553;51.640;-0.752;2023-01-26T05:43:05;102234.09;;;3.44;100.00
38812;BME280;24553;51.640;-0.752;2023-01-26T05:45:32;102221.72;;;3.46;100.00
38812;BME280;24553;51.640;-0.752;2023-01-26T05:47:57;102221.72;;;3.46;100.00
38812;BME280;24553;51.640;-0.752;2023-01-26T05:50:23;102219.59;;;3.51;100.00
38812;BME280;24553;51.640;-0.752;2023-01-26T05:52:48;102227.19;;;3.56;100.00
38812;BME280;24553;51.640;-0.752;2023-01-26T05:55:14;102222.44;;;3.48;100.00
38812;BME280;24553;51.640;-0.752;2023-01-26T05:57:40;102227.34;;;3.40;100.00
38812;BME280;24553;51.640;-0.752;2023-01-26T06:00:06;102242.34;;;3.38;100.00
38812;BME280;24553;51.640;-0.752;2023-01-26T06:02:31;102249.28;;;3.39;100.00
38812;BME280;24553;51.640;-0.752;2023-01-26T06:04:57;102245.19;;;3.35;100.00
38812;BME280;24553;51.640;-0.752;2023-01-26T06:07:22;102255.88;;;3.32;100.00
38812;BME280;24553;51.640;-0.752;2023-01-26T06:09:47;102264.50;;;3.34;100.00
38812;BME280;24553;51.640;-0.752;2023-01-26T06:12:18;102254.59;;;3.24;100.00
38812;BME280;24553;51.640;-0.752;2023-01-26T06:14:44;102264.03;;;3.27;100.00
38812;BME280;24553;51.640;-0.752;2023-01-26T06:17:10;102260.50;;;3.28;100.00
38812;BME280;24553;51.640;-0.752;2023-01-26T06:19:35;102264.91;;;3.40;100.00
38812;BME280;24553;51.640;-0.752;2023-01-26T06:22:02;102263.03;;;3.42;100.00
38812;BME280;24553;51.640;-0.752;2023-01-26T06:24:28;102276.56;;;3.36;100.00
38812;BME280;24553;51.640;-0.752;2023-01-26T06:26:53;102264.88;;;3.27;100.00
38812;BME280;24553;51.640;-0.752;2023-01-26T06:29:19;102280.59;;;3.27;100.00
38812;BME280;24553;51.640;-0.752;2023-01-26T06:31:44;102279.56;;;3.30;100.00
38812;BME280;24553;51.640;-0.752;2023-01-26T06:34:09;102276.94;;;3.30;100.00
38812;BME280;24553;51.640;-0.752;2023-01-26T06:36:35;102286.94;;;3.38;100.00
38812;BME280;24553;51.640;-0.752;2023-01-26T06:39:00;102295.34;;;3.43;100.00
38812;BME280;24553;51.640;-0.752;2023-01-26T06:41:26;102277.50;;;3.48;100.00
38812;BME280;24553;51.640;-0.752;2023-01-26T06:43:51;102290.53;;;3.49;100.00
38812;BME280;24553;51.640;-0.752;2023-01-26T06:46:17;102294.13;;;3.61;100.00
38812;BME280;24553;51.640;-0.752;2023-01-26T06:48:44;102296.91;;;3.72;100.00
38812;BME280;24553;51.640;-0.752;2023-01-26T06:53:51;102305.66;;;3.46;100.00
38812;BME280;24553;51.640;-0.752;2023-01-26T06:56:18;102307.22;;;3.48;100.00
38812;BME280;24553;51.640;-0.752;2023-01-26T06:58:43;102304.78;;;3.45;100.00
38812;BME280;24553;51.640;-0.752;2023-01-26T07:01:13;102311.53;;;3.49;100.00
38812;BME280;24553;51.640;-0.752;2023-01-26T07:03:41;102313.84;;;3.54;100.00
38812;BME280;24553;51.640;-0.752;2023-01-26T07:06:06;102316.28;;;3.57;100.00
38812;BME280;24553;51.640;-0.752;2023-01-26T07:08:35;102309.03;;;3.61;100.00
38812;BME280;24553;51.640;-0.752;2023-01-26T07:11:00;102302.94;;;3.60;100.00
38812;BME280;24553;51.640;-0.752;2023-01-26T07:13:26;102299.16;;;3.52;100.00
38812;BME280;24553;51.640;-0.752;2023-01-26T07:15:51;102308.84;;;3.37;100.00
38812;BME280;24553;51.640;-0.752;2023-01-26T07:18:16;102309.47;;;3.40;100.00
38812;BME280;24553;51.640;-0.752;2023-01-26T07:20:42;102311.19;;;3.41;100.00
38812;BME280;24553;51.640;-0.752;2023-01-26T07:23:07;102314.66;;;3.42;100.00
38812;BME280;24553;51.640;-0.752;2023-01-26T07:25:32;102330.47;;;3.40;100.00
38812;BME280;24553;51.640;-0.752;2023-01-26T07:27:58;102323.38;;;3.55;100.00
38812;BME280;24553;51.640;-0.752;2023-01-26T07:30:25;102342.03;;;3.50;100.00
38812;BME280;24553;51.640;-0.752;2023-01-26T07:32:51;102333.47;;;3.48;100.00
38812;BME280;24553;51.640;-0.752;2023-01-26T07:35:16;102330.91;;;3.47;100.00
38812;BME280;24553;51.640;-0.752;2023-01-26T07:37:42;102315.72;;;3.52;100.00
38812;BME280;24553;51.640;-0.752;2023-01-26T07:40:08;102312.28;;;3.52;100.00
38812;BME280;24553;51.640;-0.752;2023-01-26T07:42:34;102311.22;;;3.54;100.00
38812;BME280;24553;51.640;-0.752;2023-01-26T07:44:59;102316.47;;;3.54;100.00
38812;BME280;24553;51.640;-0.752;2023-01-26T07:47:25;102326.63;;;3.46;100.00
38812;BME280;24553;51.640;-0.752;2023-01-26T07:49:50;102323.25;;;3.44;100.00
38812;BME280;24553;51.640;-0.752;2023-01-26T07:52:16;102325.13;;;3.42;100.00
38812;BME280;24553;51.640;-0.752;2023-01-26T07:54:41;102338.59;;;3.50;100.00
38812;BME280;24553;51.640;-0.752;2023-01-26T07:57:06;102325.81;;;3.58;100.00
38812;BME280;24553;51.640;-0.752;2023-01-26T07:59:32;102336.91;;;3.49;100.00
38812;BME280;24553;51.640;-0.752;2023-01-26T08:01:58;102330.63;;;3.52;100.00
38812;BME280;24553;51.640;-0.752;2023-01-26T08:04:23;102313.34;;;3.62;100.00
38812;BME280;24553;51.640;-0.752;2023-01-26T08:06:52;102310.19;;;3.57;100.00
38812;BME280;24553;51.640;-0.752;2023-01-26T08:09:17;102321.41;;;3.59;100.00
38812;BME280;24553;51.640;-0.752;2023-01-26T08:11:43;102319.97;;;3.67;100.00
38812;BME280;24553;51.640;-0.752;2023-01-26T08:14:08;102323.44;;;3.68;100.00
38812;BME280;24553;51.640;-0.752;2023-01-26T08:16:33;102325.50;;;3.63;100.00
38812;BME280;24553;51.640;-0.752;2023-01-26T08:18:59;102330.25;;;3.70;100.00
38812;BME280;24553;51.640;-0.752;2023-01-26T08:21:24;102331.59;;;3.63;100.00
38812;BME280;24553;51.640;-0.752;2023-01-26T08:23:50;102335.81;;;3.66;100.00
38812;BME280;24553;51.640;-0.752;2023-01-26T08:26:17;102327.63;;;3.70;100.00
38812;BME280;24553;51.640;-0.752;2023-01-26T08:28:43;102333.19;;;3.66;100.00
38812;BME280;24553;51.640;-0.752;2023-01-26T08:31:15;102325.84;;;3.71;100.00
38812;BME280;24553;51.640;-0.752;2023-01-26T08:33:43;102326.38;;;3.76;100.00
38812;BME280;24553;51.640;-0.752;2023-01-26T08:36:11;102325.63;;;3.74;100.00
38812;BME280;24553;51.640;-0.752;2023-01-26T08:38:36;102325.00;;;3.70;100.00
38812;BME280;24553;51.640;-0.752;2023-01-26T08:41:02;102321.03;;;3.78;100.00
38812;BME280;24553;51.640;-0.752;2023-01-26T08:43:28;102324.91;;;3.72;100.00
38812;BME280;24553;51.640;-0.752;2023-01-26T08:45:54;102331.53;;;3.78;100.00
38812;BME280;24553;51.640;-0.752;2023-01-26T08:48:19;102331.34;;;3.93;100.00
38812;BME280;24553;51.640;-0.752;2023-01-26T08:50:45;102338.09;;;4.10;100.00
38812;BME280;24553;51.640;-0.752;2023-01-26T08:53:10;102338.84;;;4.12;100.00
38812;BME280;24553;51.640;-0.752;2023-01-26T08:55:36;102349.47;;;4.24;100.00
38812;BME280;24553;51.640;-0.752;2023-01-26T08:58:01;102338.75;;;4.27;100.00
38812;BME280;24553;51.640;-0.752;2023-01-26T09:00:27;102347.03;;;4.33;100.00
38812;BME280;24553;51.640;-0.752;2023-01-26T09:03:04;102344.09;;;4.38;100.00
38812;BME280;24553;51.640;-0.752;2023-01-26T09:05:37;102349.25;;;4.40;100.00
38812;BME280;24553;51.640;-0.752;2023-01-26T09:08:04;102348.94;;;4.44;100.00
38812;BME280;24553;51.640;-0.752;2023-01-26T09:10:30;102354.59;;;4.51;100.00
38812;BME280;24553;51.640;-0.752;2023-01-26T09:12:56;102357.13;;;4.52;100.00
38812;BME280;24553;51.640;-0.752;2023-01-26T09:15:22;102361.97;;;4.46;100.00
38812;BME280;24553;51.640;-0.752;2023-01-26T09:17:48;102353.78;;;4.50;100.00
38812;BME280;24553;51.640;-0.752;2023-01-26T09:20:13;102365.75;;;4.54;100.00
38812;BME280;24553;51.640;-0.752;2023-01-26T09:22:39;102362.19;;;4.43;100.00
38812;BME280;24553;51.640;-0.752;2023-01-26T09:25:05;102375.84;;;4.48;100.00
38812;BME280;24553;51.640;-0.752;2023-01-26T09:27:30;102374.78;;;4.50;100.00
38812;BME280;24553;51.640;-0.752;2023-01-26T09:29:55;102372.78;;;4.41;100.00
38812;BME280;24553;51.640;-0.752;2023-01-26T09:32:21;102374.56;;;4.41;100.00
38812;BME280;24553;51.640;-0.752;2023-01-26T09:34:47;102380.25;;;4.47;100.00
38812;BME280;24553;51.640;-0.752;2023-01-26T09:37:13;102374.47;;;4.55;100.00
38812;BME280;24553;51.640;-0.752;2023-01-26T09:39:38;102375.75;;;4.62;100.00
38812;BME280;24553;51.640;-0.752;2023-01-26T09:50:25;102365.41;;;4.85;100.00
38812;BME280;24553;51.640;-0.752;2023-01-26T09:53:08;102360.78;;;4.88;100.00
38812;BME280;24553;51.640;-0.752;2023-01-26T09:55:38;102355.00;;;4.96;100.00
38812;BME280;24553;51.640;-0.752;2023-01-26T09:58:09;102359.72;;;5.03;100.00
38812;BME280;24553;51.640;-0.752;2023-01-26T10:05:48;102363.25;;;5.39;100.00
38812;BME280;24553;51.640;-0.752;2023-01-26T10:08:18;102349.59;;;5.34;100.00
38812;BME280;24553;51.640;-0.752;2023-01-26T10:10:52;102363.63;;;5.35;100.00
38812;BME280;24553;51.640;-0.752;2023-01-26T10:13:19;102359.47;;;5.43;100.00
38812;BME280;24553;51.640;-0.752;2023-01-26T10:16:01;102367.63;;;5.52;100.00
38812;BME280;24553;51.640;-0.752;2023-01-26T10:18:31;102364.56;;;5.58;100.00
38812;BME280;24553;51.640;-0.752;2023-01-26T10:20:59;102365.84;;;5.52;100.00
38812;BME280;24553;51.640;-0.752;2023-01-26T10:23:28;102367.44;;;5.42;100.00
38812;BME280;24553;51.640;-0.752;2023-01-26T10:26:10;102374.78;;;5.25;100.00
38812;BME280;24553;51.640;-0.752;2023-01-26T10:28:37;102388.91;;;5.12;100.00
38812;BME280;24553;51.640;-0.752;2023-01-26T10:31:04;102390.06;;;5.08;100.00
38812;BME280;24553;51.640;-0.752;2023-01-26T10:33:35;102392.81;;;5.19;100.00
38812;BME280;24553;51.640;-0.752;2023-01-26T10:36:02;102406.13;;;5.29;100.00
38812;BME280;24553;51.640;-0.752;2023-01-26T10:40:59;102398.41;;;5.38;100.00
38812;BME280;24553;51.640;-0.752;2023-01-26T10:43:25;102399.16;;;5.40;100.00
38812;BME280;24553;51.640;-0.752;2023-01-26T10:45:50;102392.59;;;5.46;100.00
38812;BME280;24553;51.640;-0.752;2023-01-26T10:48:18;102395.66;;;5.53;100.00
38812;BME280;24553;51.640;-0.752;2023-01-26T10:50:46;102397.03;;;5.69;100.00
38812;BME280;24553;51.640;-0.752;2023-01-26T10:53:22;102391.44;;;5.74;100.00
38812;BME280;24553;51.640;-0.752;2023-01-26T10:56:00;102388.91;;;5.73;100.00
38812;BME280;24553;51.640;-0.752;2023-01-26T10:58:53;102379.84;;;5.77;100.00
38812;BME280;24553;51.640;-0.752;2023-01-26T11:01:19;102381.25;;;5.94;100.00
38812;BME280;24553;51.640;-0.752;2023-01-26T11:06:29;102386.84;;;5.89;100.00
38812;BME280;24553;51.640;-0.752;2023-01-26T11:09:08;102388.69;;;6.00;100.00
38812;BME280;24553;51.640;-0.752;2023-01-26T11:11:34;102392.56;;;6.07;100.00
38812;BME280;24553;51.640;-0.752;2023-01-26T11:14:15;102383.75;;;6.30;100.00
38812;BME280;24553;51.640;-0.752;2023-01-26T11:16:46;102381.72;;;6.34;100.00
38812;BME280;24553;51.640;-0.752;2023-01-26T11:22:06;102384.03;;;6.50;100.00
38812;BME280;24553;51.640;-0.752;2023-01-26T11:32:49;102386.69;;;6.61;100.00
38812;BME280;24553;51.640;-0.752;2023-01-26T11:48:55;102368.97;;;6.74;100.00
38812;BME280;24553;51.640;-0.752;2023-01-26T11:51:47;102362.25;;;6.82;100.00
38812;BME280;24553;51.640;-0.752;2023-01-26T12:00:21;102367.66;;;6.69;100.00
38812;BME280;24553;51.640;-0.752;2023-01-26T12:02:53;102358.66;;;6.83;100.00
38812;BME280;24553;51.640;-0.752;2023-01-26T12:05:30;102358.03;;;6.90;100.00
38812;BME280;24553;51.640;-0.752;2023-01-26T12:08:19;102359.84;;;6.90;100.00
38812;BME280;24553;51.640;-0.752;2023-01-26T12:13:35;102370.16;;;6.93;100.00
38812;BME280;24553;51.640;-0.752;2023-01-26T12:16:10;102368.56;;;7.02;100.00
38812;BME280;24553;51.640;-0.752;2023-01-26T12:18:47;102359.47;;;7.06;100.00
38812;BME280;24553;51.640;-0.752;2023-01-26T12:21:19;102361.97;;;7.07;100.00
38812;BME280;24553;51.640;-0.752;2023-01-26T12:23:55;102351.66;;;7.04;100.00
38812;BME280;24553;51.640;-0.752;2023-01-26T12:26:24;102335.59;;;7.07;100.00
38812;BME280;24553;51.640;-0.752;2023-01-26T12:31:30;102333.47;;;7.45;100.00
38812;BME280;24553;51.640;-0.752;2023-01-26T12:33:58;102319.38;;;7.55;100.00
38812;BME280;24553;51.640;-0.752;2023-01-26T12:44:59;102322.75;;;7.57;100.00
38812;BME280;24553;51.640;-0.752;2023-01-26T12:47:30;102317.31;;;7.59;100.00
38812;BME280;24553;51.640;-0.752;2023-01-26T12:55:25;102332.06;;;7.61;100.00
38812;BME280;24553;51.640;-0.752;2023-01-26T12:57:54;102334.97;;;7.58;100.00
38812;BME280;24553;51.640;-0.752;2023-01-26T13:00:29;102328.69;;;7.38;100.00
38812;BME280;24553;51.640;-0.752;2023-01-26T13:06:02;102334.69;;;6.97;100.00
38812;BME280;24553;51.640;-0.752;2023-01-26T13:11:42;102340.88;;;6.96;100.00
38812;BME280;24553;51.640;-0.752;2023-01-26T13:24:45;102323.22;;;7.19;100.00
38812;BME280;24553;51.640;-0.752;2023-01-26T13:27:47;102326.44;;;7.34;100.00
38812;BME280;24553;51.640;-0.752;2023-01-26T13:35:16;102324.41;;;7.15;100.00
38812;BME280;24553;51.640;-0.752;2023-01-26T13:40:25;102315.25;;;7.41;100.00
38812;BME280;24553;51.640;-0.752;2023-01-26T13:43:00;102307.72;;;7.58;100.00
38812;BME280;24553;51.640;-0.752;2023-01-26T13:45:30;102301.09;;;7.63;100.00
38812;BME280;24553;51.640;-0.752;2023-01-26T13:47:57;102304.56;;;7.43;100.00
38812;BME280;24553;51.640;-0.752;2023-01-26T13:52:53;102314.47;;;7.51;100.00
38812;BME280;24553;51.640;-0.752;2023-01-26T13:55:37;102310.00;;;7.62;100.00
38812;BME280;24553;51.640;-0.752;2023-01-26T13:58:14;102306.75;;;7.59;100.00
38812;BME280;24553;51.640;-0.752;2023-01-26T14:00:41;102305.38;;;7.76;100.00
38812;BME280;24553;51.640;-0.752;2023-01-26T14:03:20;102299.06;;;7.88;100.00
38812;BME280;24553;51.640;-0.752;2023-01-26T14:05:55;102291.53;;;7.83;100.00
38812;BME280;24553;51.640;-0.752;2023-01-26T14:08:21;102293.47;;;7.81;100.00
38812;BME280;24553;51.640;-0.752;2023-01-26T14:10:48;102294.09;;;7.53;100.00
38812;BME280;24553;51.640;-0.752;2023-01-26T14:13:28;102309.88;;;7.32;100.00
38812;BME280;24553;51.640;-0.752;2023-01-26T14:16:00;102313.75;;;7.16;100.00
38812;BME280;24553;51.640;-0.752;2023-01-26T14:18:26;102321.63;;;6.84;100.00
38812;BME280;24553;51.640;-0.752;2023-01-26T14:21:03;102316.47;;;6.71;100.00
38812;BME280;24553;51.640;-0.752;2023-01-26T14:23:34;102326.53;;;6.77;100.00
38812;BME280;24553;51.640;-0.752;2023-01-26T14:26:05;102323.53;;;6.71;100.00
38812;BME280;24553;51.640;-0.752;2023-01-26T14:28:36;102323.88;;;6.89;100.00
38812;BME280;24553;51.640;-0.752;2023-01-26T14:31:09;102327.19;;;7.02;100.00